Handytankers Miracle — V7OM4 — position and weather

sailwx.info

Track history (hours):
 
Tides and Currents Weather Stations Pressure Air Temp Water Temp Dewpoint Dewpoint Depression Visibility Wind Speed Wind Dir Waves Ship Positions

Handytankers Miracle

Last reported at 2017-Feb-08 22:09 UTC. Time now 2017-Feb-22 22:03 UTC.
Position N 01°14' E 104°00'.
Warning: this ship's position is 13 days out of date.

Length 183 m; draft 7.3 m.

Type: Tanker. MMSI: 538003114.

Date/timePositionNaut miles runAvg speedWind from/ knotsBaromVisibWave heightAir tempDewpointWater temp
2017-Feb-08 22:09N 01°14' E 104°00'12 0.3
2017-Feb-07 10:28N 01°12' E 103°48'2 1.8
2017-Feb-07 09:33N 01°14' E 103°48'1 0.3
2017-Feb-07 06:21N 01°14' E 103°49'0 0.0
2017-Feb-07 05:33N 01°14' E 103°49'0 0.0
2017-Feb-07 04:33N 01°14' E 103°49'0 0.0
2017-Feb-07 02:27N 01°14' E 103°49'0 0.0
2017-Feb-07 01:21N 01°14' E 103°49'0 0.1
2017-Feb-06 23:21N 01°14' E 103°49'0 0.1
2017-Feb-06 22:30N 01°14' E 103°49'0 0.0
2017-Feb-06 18:12N 01°14' E 103°49'0 0.0
2017-Feb-06 15:09N 01°14' E 103°49'0 0.0
2017-Feb-06 10:27N 01°14' E 103°48'0 0.2
2017-Feb-06 09:21N 01°14' E 103°49'0 0.0
2017-Feb-06 08:27N 01°14' E 103°49'0 0.0
2017-Feb-06 07:30N 01°14' E 103°49'0 0.0
2017-Feb-06 06:27N 01°14' E 103°49'0 0.0
2017-Feb-06 05:27N 01°14' E 103°49'0 0.0
2017-Feb-06 04:33N 01°14' E 103°49'0 0.1
2017-Feb-06 03:33N 01°14' E 103°49'0 0.0
2017-Feb-06 02:33N 01°14' E 103°49'0 0.0
2017-Feb-06 01:33N 01°14' E 103°49'0 0.0
2017-Feb-06 00:33N 01°14' E 103°49'0 0.0
2017-Feb-05 23:33N 01°14' E 103°49'0 0.0
2017-Feb-05 22:33N 01°14' E 103°49'0 0.2
2017-Feb-05 21:21N 01°14' E 103°49'0 0.0
2017-Feb-05 17:30N 01°14' E 103°49'0 0.1
2017-Feb-05 16:27N 01°14' E 103°49'0 0.0
2017-Feb-05 12:27N 01°14' E 103°49'0 0.1
2017-Feb-05 11:21N 01°14' E 103°48'0 0.1
2017-Feb-05 09:33N 01°14' E 103°49'0 0.1
2017-Feb-05 08:30N 01°14' E 103°49'0 0.1
2017-Feb-05 07:18N 01°14' E 103°49'0 0.0
2017-Feb-05 06:33N 01°14' E 103°49'0 0.2
2017-Feb-05 05:27N 01°14' E 103°49'0 0.0
2017-Feb-05 03:27N 01°14' E 103°49'0 0.1
2017-Feb-05 02:33N 01°14' E 103°49'0 0.0
2017-Feb-05 01:33N 01°14' E 103°49'0 0.0
2017-Feb-05 00:21N 01°14' E 103°49'0 0.1
2017-Feb-04 23:09N 01°14' E 103°49'0 0.0
2017-Feb-04 22:33N 01°14' E 103°49'0 0.0
2017-Feb-04 18:33N 01°14' E 103°49'0 0.0
2017-Feb-04 15:27N 01°14' E 103°49'0 0.0
2017-Feb-04 09:33N 01°14' E 103°49'0 0.1
2017-Feb-04 08:24N 01°14' E 103°49'0 0.0
2017-Feb-04 07:33N 01°14' E 103°49'0 0.0
2017-Feb-04 05:06N 01°14' E 103°49'0 0.1
2017-Feb-04 03:33N 01°14' E 103°49'0 0.1
2017-Feb-04 02:33N 01°14' E 103°49'0 0.0
2017-Feb-04 01:09N 01°14' E 103°49'0 0.2
2017-Feb-04 00:27N 01°14' E 103°49'0 0.0
2017-Feb-03 20:09N 01°14' E 103°49'0 0.1
2017-Feb-03 19:33N 01°14' E 103°49'0 0.0
2017-Feb-03 14:09N 01°14' E 103°49'0 0.2
2017-Feb-03 13:33N 01°14' E 103°49'0 0.1
2017-Feb-03 12:33N 01°14' E 103°49'0 0.0
2017-Feb-03 11:15N 01°14' E 103°49'0 0.1
2017-Feb-03 10:27N 01°14' E 103°49'0 0.1
2017-Feb-03 09:33N 01°14' E 103°49'0 0.0
2017-Feb-03 08:33N 01°14' E 103°49'0 0.1
2017-Feb-03 07:33N 01°14' E 103°49'0 0.0
2017-Feb-03 03:33N 01°14' E 103°49'2 2.5
2017-Feb-03 02:33N 01°15' E 103°46'90 8.0
2017-Feb-02 15:20N 01°49' E 102°23'  
Track history (hours):
 
Tides and Currents Weather Stations Pressure Air Temp Water Temp Dewpoint Dewpoint Depression Visibility Wind Speed Wind Dir Waves Ship Positions

Handytankers Miracle

Last reported at 2017-Feb-08 22:09 UTC. Time now 2017-Feb-22 22:03 UTC.
Position N 01°14' E 104°00'.
Warning: this ship's position is 13 days out of date.

Length 183 m; draft 7.3 m.

Type: Tanker. MMSI: 538003114.

Date/timePositionNaut miles runAvg speedWind from/ knotsBaromVisibWave heightAir tempDewpointWater temp
2017-Feb-08 22:09N 01°14' E 104°00'12 0.3
2017-Feb-07 10:28N 01°12' E 103°48'2 1.8
2017-Feb-07 09:33N 01°14' E 103°48'1 0.3
2017-Feb-07 06:21N 01°14' E 103°49'0 0.0
2017-Feb-07 05:33N 01°14' E 103°49'0 0.0
2017-Feb-07 04:33N 01°14' E 103°49'0 0.0
2017-Feb-07 02:27N 01°14' E 103°49'0 0.0
2017-Feb-07 01:21N 01°14' E 103°49'0 0.1
2017-Feb-06 23:21N 01°14' E 103°49'0 0.1
2017-Feb-06 22:30N 01°14' E 103°49'0 0.0
2017-Feb-06 18:12N 01°14' E 103°49'0 0.0
2017-Feb-06 15:09N 01°14' E 103°49'0 0.0
2017-Feb-06 10:27N 01°14' E 103°48'0 0.2
2017-Feb-06 09:21N 01°14' E 103°49'0 0.0
2017-Feb-06 08:27N 01°14' E 103°49'0 0.0
2017-Feb-06 07:30N 01°14' E 103°49'0 0.0
2017-Feb-06 06:27N 01°14' E 103°49'0 0.0
2017-Feb-06 05:27N 01°14' E 103°49'0 0.0
2017-Feb-06 04:33N 01°14' E 103°49'0 0.1
2017-Feb-06 03:33N 01°14' E 103°49'0 0.0
2017-Feb-06 02:33N 01°14' E 103°49'0 0.0
2017-Feb-06 01:33N 01°14' E 103°49'0 0.0
2017-Feb-06 00:33N 01°14' E 103°49'0 0.0
2017-Feb-05 23:33N 01°14' E 103°49'0 0.0
2017-Feb-05 22:33N 01°14' E 103°49'0 0.2
2017-Feb-05 21:21N 01°14' E 103°49'0 0.0
2017-Feb-05 17:30N 01°14' E 103°49'0 0.1
2017-Feb-05 16:27N 01°14' E 103°49'0 0.0
2017-Feb-05 12:27N 01°14' E 103°49'0 0.1
2017-Feb-05 11:21N 01°14' E 103°48'0 0.1
2017-Feb-05 09:33N 01°14' E 103°49'0 0.1
2017-Feb-05 08:30N 01°14' E 103°49'0 0.1
2017-Feb-05 07:18N 01°14' E 103°49'0 0.0
2017-Feb-05 06:33N 01°14' E 103°49'0 0.2
2017-Feb-05 05:27N 01°14' E 103°49'0 0.0
2017-Feb-05 03:27N 01°14' E 103°49'0 0.1
2017-Feb-05 02:33N 01°14' E 103°49'0 0.0
2017-Feb-05 01:33N 01°14' E 103°49'0 0.0
2017-Feb-05 00:21N 01°14' E 103°49'0 0.1
2017-Feb-04 23:09N 01°14' E 103°49'0 0.0
2017-Feb-04 22:33N 01°14' E 103°49'0 0.0
2017-Feb-04 18:33N 01°14' E 103°49'0 0.0
2017-Feb-04 15:27N 01°14' E 103°49'0 0.0
2017-Feb-04 09:33N 01°14' E 103°49'0 0.1
2017-Feb-04 08:24N 01°14' E 103°49'0 0.0
2017-Feb-04 07:33N 01°14' E 103°49'0 0.0
2017-Feb-04 05:06N 01°14' E 103°49'0 0.1
2017-Feb-04 03:33N 01°14' E 103°49'0 0.1
2017-Feb-04 02:33N 01°14' E 103°49'0 0.0
2017-Feb-04 01:09N 01°14' E 103°49'0 0.2
2017-Feb-04 00:27N 01°14' E 103°49'0 0.0
2017-Feb-03 20:09N 01°14' E 103°49'0 0.1
2017-Feb-03 19:33N 01°14' E 103°49'0 0.0
2017-Feb-03 14:09N 01°14' E 103°49'0 0.2
2017-Feb-03 13:33N 01°14' E 103°49'0 0.1
2017-Feb-03 12:33N 01°14' E 103°49'0 0.0
2017-Feb-03 11:15N 01°14' E 103°49'0 0.1
2017-Feb-03 10:27N 01°14' E 103°49'0 0.1
2017-Feb-03 09:33N 01°14' E 103°49'0 0.0
2017-Feb-03 08:33N 01°14' E 103°49'0 0.1
2017-Feb-03 07:33N 01°14' E 103°49'0 0.0
2017-Feb-03 03:33N 01°14' E 103°49'2 2.5
2017-Feb-03 02:33N 01°15' E 103°46'90 8.0
2017-Feb-02 15:20N 01°49' E 102°23'  

Dump ship's entire track history